createdAt,value
2023-04-27T00:21:32.078Z,1.39
2023-04-27T00:26:37.993Z,1.31
2023-04-27T00:31:44.360Z,1.21
2023-04-27T00:36:50.175Z,1.15
2023-04-27T00:41:57.375Z,1.08
2023-04-27T00:47:16.598Z,0.99
2023-04-27T00:52:30.441Z,0.91
2023-04-27T00:57:42.682Z,0.85
2023-04-27T01:02:52.255Z,0.82
2023-04-27T01:07:57.987Z,0.84
2023-04-27T01:13:05.473Z,0.90
2023-04-27T01:18:11.315Z,0.94
2023-04-27T01:23:17.732Z,0.85
2023-04-27T01:28:23.471Z,0.77
2023-04-27T01:33:29.890Z,0.64
2023-04-27T01:38:36.517Z,0.51
2023-04-27T01:43:43.847Z,0.41
2023-04-27T01:48:49.245Z,0.38
2023-04-27T01:53:55.096Z,0.32
2023-04-27T01:59:00.615Z,0.27
2023-04-27T02:04:06.782Z,0.26
2023-04-27T02:09:12.680Z,0.40
2023-04-27T02:14:19.301Z,0.47
2023-04-27T02:19:25.405Z,0.44
2023-04-27T02:24:31.223Z,0.36
2023-04-27T02:29:39.576Z,0.25
2023-04-27T02:34:45.892Z,0.15
2023-04-27T02:39:51.618Z,0.05
2023-04-27T02:44:57.109Z,-0.05
2023-04-27T02:50:03.005Z,0.00
2023-04-27T02:55:12.354Z,0.11
2023-04-27T03:00:18.980Z,0.24
2023-04-27T03:05:28.843Z,0.23
2023-04-27T03:10:34.404Z,0.21
2023-04-27T03:15:40.023Z,0.08
2023-04-27T03:20:45.438Z,-0.06
2023-04-27T03:25:51.194Z,-0.11
2023-04-27T03:30:56.692Z,-0.13
2023-04-27T03:36:02.569Z,-0.09
2023-04-27T03:41:08.107Z,-0.04
2023-04-27T03:46:14.437Z,0.21
2023-04-27T03:51:20.850Z,0.36
2023-04-27T03:56:26.629Z,0.38
2023-04-27T04:01:34.223Z,0.49
2023-04-27T04:06:39.791Z,0.74
2023-04-27T04:11:45.127Z,0.85
2023-04-27T04:16:51.702Z,1.00
2023-04-27T04:21:59.686Z,1.25
2023-04-27T04:27:05.662Z,1.75
2023-04-27T04:32:12.655Z,4.12
2023-04-27T04:37:24.246Z,7.05
2023-04-27T04:42:34.493Z,7.87
2023-04-27T04:47:40.707Z,7.67
2023-04-27T04:52:46.561Z,8.01
2023-04-27T04:57:52.641Z,7.85
2023-04-27T05:02:58.867Z,9.19
2023-04-27T05:08:07.185Z,11.35
2023-04-27T05:13:12.533Z,14.32
2023-04-27T05:18:18.178Z,16.17
2023-04-27T05:23:23.624Z,17.78
2023-04-27T05:28:29.116Z,19.52
2023-04-27T05:33:34.656Z,20.96
2023-04-27T05:38:40.411Z,22.04
2023-04-27T05:43:46.295Z,22.95
2023-04-27T05:48:51.926Z,23.63
2023-04-27T05:53:57.697Z,23.47
2023-04-27T05:59:03.619Z,23.57
2023-04-27T06:04:09.183Z,24.06
2023-04-27T06:09:15.695Z,24.91
2023-04-27T06:14:21.309Z,25.47
2023-04-27T06:19:26.850Z,25.52
2023-04-27T06:24:32.446Z,25.93
2023-04-27T06:29:37.953Z,26.58
2023-04-27T06:34:43.446Z,26.70
2023-04-27T06:39:48.902Z,27.01
2023-04-27T06:44:56.644Z,27.43
2023-04-27T06:50:02.369Z,27.53
2023-04-27T06:55:09.758Z,27.86
2023-04-27T07:00:16.731Z,28.04
2023-04-27T07:05:22.593Z,28.38
2023-04-27T07:10:29.049Z,28.79
2023-04-27T07:15:34.532Z,29.05
2023-04-27T07:20:41.037Z,29.21
2023-04-27T07:25:46.792Z,29.23
2023-04-27T07:30:52.616Z,29.05
2023-04-27T07:35:58.351Z,29.40
2023-04-27T07:41:05.717Z,29.86
2023-04-27T07:46:11.981Z,29.85
2023-04-27T07:51:17.628Z,29.73
2023-04-27T07:56:23.119Z,29.54
2023-04-27T08:01:28.893Z,30.03
2023-04-27T08:06:35.807Z,29.17
2023-04-27T08:11:41.618Z,27.13
2023-04-27T08:16:47.136Z,24.87
2023-04-27T08:21:52.681Z,23.21
2023-04-27T08:26:58.081Z,21.58
2023-04-27T08:32:04.479Z,20.80
2023-04-27T08:37:10.193Z,19.03
2023-04-27T08:42:16.096Z,17.30
2023-04-27T08:47:31.110Z,15.84
2023-04-27T08:52:46.874Z,14.50
2023-04-27T08:58:00.385Z,13.43
2023-04-27T09:03:06.558Z,12.81
2023-04-27T09:08:12.194Z,14.10
2023-04-27T09:13:18.782Z,14.28
2023-04-27T09:18:25.106Z,13.93
2023-04-27T09:23:32.340Z,14.37
2023-04-27T09:28:41.357Z,15.89
2023-04-27T09:33:54.559Z,16.09
2023-04-27T09:39:03.258Z,16.08
2023-04-27T09:44:08.970Z,16.62
2023-04-27T09:49:16.124Z,17.06
2023-04-27T09:54:23.985Z,16.56
2023-04-27T09:59:48.435Z,17.32
2023-04-27T10:05:27.562Z,17.87
2023-04-27T10:10:47.200Z,18.10
2023-04-27T10:15:52.868Z,16.79
2023-04-27T10:21:09.384Z,15.53
2023-04-27T10:26:21.914Z,14.38
2023-04-27T10:31:30.566Z,13.40
2023-04-27T10:36:40.970Z,12.83
2023-04-27T10:41:54.801Z,12.81
2023-04-27T10:47:02.480Z,13.15
2023-04-27T10:52:08.526Z,13.39
2023-04-27T10:57:14.405Z,13.86
2023-04-27T11:02:27.343Z,15.56
2023-04-27T11:07:33.749Z,15.39
2023-04-27T11:12:39.319Z,14.51
2023-04-27T11:17:45.116Z,13.48
2023-04-27T11:22:50.580Z,12.57
2023-04-27T11:27:56.089Z,11.88
2023-04-27T11:33:10.374Z,11.41
2023-04-27T11:38:19.834Z,11.29
2023-04-27T11:43:27.439Z,11.22
2023-04-27T11:48:33.192Z,11.28
2023-04-27T11:53:39.865Z,11.32
2023-04-27T11:58:46.471Z,11.46
2023-04-27T12:03:53.047Z,11.71
2023-04-27T12:08:59.318Z,12.09
2023-04-27T12:14:04.882Z,12.56
2023-04-27T12:19:10.342Z,12.70
2023-04-27T12:24:16.093Z,13.22
2023-04-27T12:29:22.347Z,13.85
2023-04-27T12:34:28.579Z,13.98
2023-04-27T12:39:34.396Z,13.67
2023-04-27T12:44:39.922Z,12.96
2023-04-27T12:49:45.494Z,12.48
2023-04-27T12:54:57.698Z,12.09
2023-04-27T13:00:05.556Z,11.92
2023-04-27T13:05:12.141Z,12.29
2023-04-27T13:10:17.722Z,13.25
2023-04-27T13:15:23.181Z,13.56
2023-04-27T13:20:28.733Z,13.48
2023-04-27T13:25:34.359Z,13.27
2023-04-27T13:30:39.959Z,12.93
2023-04-27T13:35:45.540Z,12.38
2023-04-27T13:40:50.976Z,12.08
2023-04-27T13:45:58.332Z,11.96
2023-04-27T13:51:06.296Z,11.97
2023-04-27T13:56:11.711Z,11.98
2023-04-27T14:01:17.148Z,12.00
2023-04-27T14:06:22.801Z,12.11
2023-04-27T14:11:28.495Z,12.30
2023-04-27T14:16:34.106Z,12.37
2023-04-27T14:21:39.479Z,12.34
2023-04-27T14:26:46.602Z,12.36
2023-04-27T14:31:52.207Z,12.40
2023-04-27T14:36:57.678Z,12.31
2023-04-27T14:42:04.218Z,12.25
2023-04-27T14:47:09.921Z,12.15
2023-04-27T14:52:15.523Z,12.13
2023-04-27T14:57:21.120Z,12.14
2023-04-27T15:02:26.785Z,12.16
2023-04-27T15:07:32.283Z,12.06
2023-04-27T15:12:37.786Z,11.85
2023-04-27T15:17:43.418Z,11.55
2023-04-27T15:22:49.044Z,11.26
2023-04-27T15:27:54.724Z,11.00
2023-04-27T15:33:00.196Z,10.75
2023-04-27T15:38:06.664Z,10.52
2023-04-27T15:43:12.333Z,10.40
2023-04-27T15:52:44.590Z,10.21
2023-04-27T15:57:50.607Z,10.14
2023-04-27T16:02:56.303Z,10.12
2023-04-27T16:08:02.003Z,10.12
2023-04-27T16:13:07.483Z,10.10
2023-04-27T16:18:13.091Z,10.07
2023-04-27T16:23:18.746Z,10.00
2023-04-27T16:28:24.192Z,9.88
2023-04-27T16:33:29.746Z,9.88
2023-04-27T16:38:36.612Z,9.86
2023-04-27T16:43:44.223Z,9.80
2023-04-27T16:48:49.829Z,9.77
2023-04-27T16:53:55.158Z,9.72
2023-04-27T16:59:01.347Z,9.61
2023-04-27T17:04:07.341Z,9.46
2023-04-27T17:09:13.205Z,9.38
2023-04-27T17:14:19.703Z,9.27
2023-04-27T17:19:25.165Z,9.16
2023-04-27T17:24:30.638Z,9.08
2023-04-27T17:29:36.412Z,8.99
2023-04-27T17:34:43.066Z,8.92
2023-04-27T17:39:54.136Z,8.84
2023-04-27T17:44:59.418Z,8.72
2023-04-27T17:50:05.606Z,8.57
2023-04-27T17:55:11.044Z,8.38
2023-04-27T18:00:18.436Z,8.14
2023-04-27T18:05:24.113Z,7.86
2023-04-27T18:10:29.528Z,7.55
2023-04-27T18:15:35.078Z,7.26
2023-04-27T18:20:44.812Z,6.97
2023-04-27T18:25:50.650Z,6.72
2023-04-27T18:30:56.075Z,6.51
2023-04-27T18:36:01.632Z,6.37
2023-04-27T18:41:07.267Z,6.27
2023-04-27T18:46:13.142Z,6.22
2023-04-27T18:51:18.542Z,6.17
2023-04-27T18:56:24.230Z,6.08
2023-04-27T19:01:30.441Z,5.92
2023-04-27T19:06:36.349Z,5.75
2023-04-27T19:11:42.666Z,5.59
2023-04-27T19:16:48.346Z,5.46
2023-04-27T19:21:54.234Z,5.33
2023-04-27T19:26:59.740Z,5.21
2023-04-27T19:32:05.562Z,5.14
2023-04-27T19:37:11.081Z,5.09
2023-04-27T19:42:16.681Z,5.01
2023-04-27T19:47:23.844Z,4.85
2023-04-27T19:52:30.019Z,4.64
2023-04-27T19:57:35.693Z,4.43
2023-04-27T20:02:41.264Z,4.28
2023-04-27T20:07:47.019Z,4.15
2023-04-27T20:12:57.068Z,3.97
2023-04-27T20:18:03.031Z,3.77
2023-04-27T20:23:09.008Z,3.70
2023-04-27T20:28:14.462Z,3.67
2023-04-27T20:33:20.142Z,3.62
2023-04-27T20:38:25.650Z,3.47
2023-04-27T20:43:31.492Z,3.37
2023-04-27T20:48:37.170Z,3.28
2023-04-27T20:53:42.757Z,3.19
2023-04-27T20:58:51.632Z,2.98
2023-04-27T21:04:12.677Z,2.77
2023-04-27T21:09:18.296Z,2.71
2023-04-27T21:14:23.791Z,2.71
2023-04-27T21:19:29.157Z,2.74
2023-04-27T21:24:34.654Z,2.86
2023-04-27T21:29:40.236Z,2.99
2023-04-27T21:34:50.577Z,3.12
2023-04-27T21:39:59.923Z,3.21
2023-04-27T21:45:06.559Z,3.32
2023-04-27T21:50:12.222Z,3.22
2023-04-27T21:55:17.745Z,3.00
2023-04-27T22:00:23.664Z,2.93
2023-04-27T22:05:29.254Z,2.74
2023-04-27T22:10:35.135Z,2.54
2023-04-27T22:15:41.105Z,2.48
2023-04-27T22:20:47.302Z,2.54
2023-04-27T22:25:52.916Z,2.62
2023-04-27T22:30:58.246Z,2.54
2023-04-27T22:36:04.048Z,2.38
2023-04-27T22:41:09.570Z,2.20
2023-04-27T22:46:15.110Z,2.07
2023-04-27T22:51:21.789Z,1.94
2023-04-27T22:56:27.141Z,1.89
2023-04-27T23:01:32.774Z,1.91
2023-04-27T23:06:38.258Z,1.92
2023-04-27T23:11:43.660Z,1.94
2023-04-27T23:16:49.716Z,1.94
2023-04-27T23:21:55.433Z,1.88
2023-04-27T23:27:01.255Z,1.80
2023-04-27T23:32:07.628Z,1.71
2023-04-27T23:37:13.471Z,1.72
2023-04-27T23:42:18.924Z,1.78
2023-04-27T23:47:24.641Z,1.82
2023-04-27T23:52:30.048Z,1.85
2023-04-27T23:57:35.593Z,1.68
